createdAt,value
2017-08-28T00:00:45.674Z,0
2017-08-28T00:01:59.562Z,0
2017-08-28T00:03:13.989Z,0
2017-08-28T00:04:27.896Z,0
2017-08-28T00:05:41.470Z,0
2017-08-28T00:06:55.998Z,0
2017-08-28T00:08:09.613Z,0
2017-08-28T00:09:23.298Z,0
2017-08-28T00:10:36.942Z,0
2017-08-28T00:11:50.626Z,0
2017-08-28T00:13:05.188Z,0
2017-08-28T00:14:18.744Z,0
2017-08-28T00:15:32.347Z,0
2017-08-28T00:16:45.976Z,0
2017-08-28T00:17:59.577Z,0
2017-08-28T00:19:13.797Z,0
2017-08-28T00:20:27.376Z,0
2017-08-28T00:21:41.348Z,0
2017-08-28T00:22:55.246Z,0
2017-08-28T00:24:09.276Z,0
2017-08-28T00:25:23.474Z,0
2017-08-28T00:26:37.982Z,0
2017-08-28T00:27:51.605Z,0
2017-08-28T00:29:05.286Z,0
2017-08-28T00:30:19.508Z,0
2017-08-28T00:31:34.104Z,0
2017-08-28T00:32:48.367Z,0
2017-08-28T00:34:01.961Z,0
2017-08-28T00:35:15.545Z,0
2017-08-28T00:36:29.107Z,0
2017-08-28T00:37:43.388Z,0
2017-08-28T00:38:57.276Z,0
2017-08-28T00:40:10.839Z,0
2017-08-28T00:41:24.551Z,0
2017-08-28T00:42:38.723Z,0
2017-08-28T00:43:52.635Z,0
2017-08-28T00:45:12.536Z,0
2017-08-28T00:46:26.859Z,0
2017-08-28T00:47:40.760Z,0
2017-08-28T00:48:54.712Z,0
2017-08-28T00:50:09.084Z,0
2017-08-28T00:51:22.665Z,0
2017-08-28T00:52:36.620Z,0
2017-08-28T00:53:50.196Z,0
2017-08-28T00:55:04.461Z,0
2017-08-28T00:56:18.687Z,0
2017-08-28T00:57:32.872Z,0
2017-08-28T00:58:46.812Z,0
2017-08-28T01:00:00.376Z,0
2017-08-28T01:01:13.940Z,0
2017-08-28T01:02:27.805Z,0
2017-08-28T01:03:41.444Z,0
2017-08-28T01:04:55.098Z,0
2017-08-28T01:06:09.203Z,0
2017-08-28T01:07:23.384Z,0
2017-08-28T01:08:37.635Z,0
2017-08-28T01:09:51.304Z,0
2017-08-28T01:11:04.856Z,0
2017-08-28T01:12:18.419Z,0
2017-08-28T01:13:32.424Z,0
2017-08-28T01:14:46.309Z,0
2017-08-28T01:16:00.036Z,0
2017-08-28T01:17:13.623Z,0
2017-08-28T01:18:27.218Z,0
2017-08-28T01:19:40.796Z,0
2017-08-28T01:20:54.685Z,0
2017-08-28T01:22:08.276Z,0
2017-08-28T01:23:21.834Z,0
2017-08-28T01:24:35.397Z,0
2017-08-28T01:25:48.956Z,0
2017-08-28T01:27:02.935Z,0
2017-08-28T01:28:16.533Z,0
2017-08-28T01:29:30.349Z,0
2017-08-28T01:30:43.926Z,0
2017-08-28T01:31:57.614Z,0
2017-08-28T01:33:11.483Z,0
2017-08-28T01:34:25.078Z,0
2017-08-28T01:35:38.675Z,0
2017-08-28T01:36:52.216Z,0
2017-08-28T01:38:05.851Z,0
2017-08-28T01:39:19.759Z,0
2017-08-28T01:40:33.650Z,0
2017-08-28T01:41:47.224Z,0
2017-08-28T01:43:00.787Z,0
2017-08-28T01:44:14.374Z,0
2017-08-28T01:45:43.116Z,0
2017-08-28T01:46:56.978Z,0
2017-08-28T01:48:10.529Z,0
2017-08-28T01:49:24.441Z,0
2017-08-28T01:50:37.982Z,0
2017-08-28T01:51:51.873Z,0
2017-08-28T01:53:05.777Z,0
2017-08-28T01:54:19.499Z,0
2017-08-28T01:55:33.403Z,0
2017-08-28T01:56:46.954Z,0
2017-08-28T01:58:00.836Z,0
2017-08-28T01:59:14.426Z,0
2017-08-28T02:00:28.137Z,0
2017-08-28T02:01:41.692Z,0
2017-08-28T02:02:55.620Z,0
2017-08-28T02:04:09.469Z,0
2017-08-28T02:05:23.096Z,0
2017-08-28T02:06:36.642Z,0
2017-08-28T02:07:50.214Z,0
2017-08-28T02:09:03.810Z,0
2017-08-28T02:10:17.725Z,0
2017-08-28T02:11:31.364Z,0
2017-08-28T02:12:44.921Z,0
2017-08-28T02:13:58.822Z,0
2017-08-28T02:15:12.378Z,0
2017-08-28T02:16:26.265Z,0
2017-08-28T02:17:39.873Z,0
2017-08-28T02:18:53.469Z,0
2017-08-28T02:20:07.289Z,0
2017-08-28T02:21:20.896Z,0
2017-08-28T02:22:34.749Z,0
2017-08-28T02:23:48.319Z,0
2017-08-28T02:25:01.885Z,0
2017-08-28T02:26:15.448Z,0
2017-08-28T02:27:29.166Z,0
2017-08-28T02:28:43.035Z,0
2017-08-28T02:29:56.607Z,0
2017-08-28T02:31:10.245Z,0
2017-08-28T02:32:23.800Z,0
2017-08-28T02:33:37.371Z,0
2017-08-28T02:34:51.385Z,0
2017-08-28T02:36:04.954Z,0
2017-08-28T02:37:18.527Z,0
2017-08-28T02:38:32.088Z,0
2017-08-28T02:39:46.082Z,0
2017-08-28T02:41:00.070Z,0
2017-08-28T02:42:13.709Z,0
2017-08-28T02:43:27.284Z,0
2017-08-28T02:44:40.851Z,0
2017-08-28T02:45:54.434Z,0
2017-08-28T02:47:08.474Z,0
2017-08-28T02:48:22.039Z,0
2017-08-28T02:49:35.788Z,0
2017-08-28T02:50:49.356Z,0
2017-08-28T02:52:02.914Z,0
2017-08-28T02:53:16.798Z,0
2017-08-28T02:54:30.488Z,0
2017-08-28T02:55:44.507Z,0
2017-08-28T02:56:58.082Z,0
2017-08-28T02:58:11.725Z,0
2017-08-28T02:59:25.597Z,0
2017-08-28T03:00:39.493Z,0
2017-08-28T03:01:53.375Z,0
2017-08-28T03:03:06.983Z,0
2017-08-28T03:04:20.690Z,0
2017-08-28T03:05:34.564Z,0
2017-08-28T03:06:48.121Z,0
2017-08-28T03:08:01.684Z,0
2017-08-28T03:09:15.500Z,0
2017-08-28T03:10:29.069Z,0
2017-08-28T03:11:42.924Z,0
2017-08-28T03:12:56.581Z,0
2017-08-28T03:14:10.143Z,0
2017-08-28T03:15:23.714Z,0
2017-08-28T03:16:37.541Z,0
2017-08-28T03:17:51.806Z,0
2017-08-28T03:19:05.414Z,0
2017-08-28T03:20:18.981Z,0
2017-08-28T03:21:32.757Z,0
2017-08-28T03:22:46.323Z,0
2017-08-28T03:24:00.256Z,0
2017-08-28T03:25:14.351Z,0
2017-08-28T03:26:27.914Z,0
2017-08-28T03:27:41.609Z,0
2017-08-28T03:28:55.218Z,0
2017-08-28T03:30:09.116Z,0
2017-08-28T03:31:22.697Z,0
2017-08-28T03:32:36.263Z,0
2017-08-28T03:33:49.815Z,0
2017-08-28T03:35:03.703Z,0
2017-08-28T03:36:17.686Z,0
2017-08-28T03:37:31.238Z,0
2017-08-28T03:38:44.811Z,0
2017-08-28T03:39:58.769Z,0
2017-08-28T03:41:12.335Z,0
2017-08-28T03:42:26.303Z,0
2017-08-28T03:43:39.883Z,0
2017-08-28T03:44:53.603Z,0
2017-08-28T03:46:07.166Z,0
2017-08-28T03:47:20.732Z,0
2017-08-28T03:48:34.586Z,0
2017-08-28T03:49:48.151Z,0
2017-08-28T03:51:01.742Z,0
2017-08-28T03:52:15.300Z,0
2017-08-28T03:53:28.865Z,0
2017-08-28T03:54:42.748Z,0
2017-08-28T03:55:56.302Z,0
2017-08-28T03:57:09.878Z,0
2017-08-28T03:58:23.461Z,0
2017-08-28T03:59:37.457Z,0
2017-08-28T04:00:51.344Z,0
2017-08-28T04:02:04.915Z,0
2017-08-28T04:03:18.491Z,0
2017-08-28T04:04:32.045Z,4
2017-08-28T04:05:46.287Z,0
2017-08-28T04:07:00.161Z,0
2017-08-28T04:08:14.562Z,4
2017-08-28T04:09:28.199Z,4
2017-08-28T04:10:41.766Z,8
2017-08-28T04:11:55.435Z,8
2017-08-28T04:13:09.384Z,8
2017-08-28T04:14:23.465Z,8
2017-08-28T04:15:37.034Z,12
2017-08-28T04:16:50.603Z,12
2017-08-28T04:18:04.181Z,16
2017-08-28T04:19:18.073Z,20
2017-08-28T04:20:31.641Z,24
2017-08-28T04:21:45.214Z,28
2017-08-28T04:22:58.810Z,36
2017-08-28T04:24:12.392Z,40
2017-08-28T04:25:26.237Z,48
2017-08-28T04:26:40.126Z,56
2017-08-28T04:27:53.716Z,64
2017-08-28T04:29:07.341Z,76
2017-08-28T04:30:20.924Z,84
2017-08-28T04:31:34.802Z,96
2017-08-28T04:32:48.447Z,108
2017-08-28T04:34:02.482Z,124
2017-08-28T04:35:16.146Z,136
2017-08-28T04:36:30.047Z,152
2017-08-28T04:37:43.904Z,172
2017-08-28T04:38:57.494Z,200
2017-08-28T04:40:11.076Z,224
2017-08-28T04:41:24.659Z,248
2017-08-28T04:42:38.236Z,276
2017-08-28T04:43:52.096Z,312
2017-08-28T04:45:05.661Z,348
2017-08-28T04:46:19.254Z,388
2017-08-28T04:47:32.871Z,432
2017-08-28T04:48:46.466Z,480
2017-08-28T04:50:00.351Z,536
2017-08-28T04:51:13.925Z,588
2017-08-28T04:52:27.500Z,636
2017-08-28T04:53:41.765Z,680
2017-08-28T04:54:55.388Z,732
2017-08-28T04:56:09.278Z,788
2017-08-28T04:57:22.853Z,852
2017-08-28T04:58:36.736Z,916
2017-08-28T04:59:50.556Z,992
2017-08-28T05:01:04.138Z,1068
2017-08-28T05:02:18.014Z,1140
2017-08-28T05:03:31.576Z,1208
2017-08-28T05:04:45.210Z,1256
2017-08-28T05:05:58.856Z,1280
2017-08-28T05:07:12.448Z,1332
2017-08-28T05:08:26.687Z,1368
2017-08-28T05:09:40.257Z,1376
2017-08-28T05:10:53.814Z,1376
2017-08-28T05:12:07.533Z,1384
2017-08-28T05:14:12.672Z,1488
2017-08-28T05:15:26.583Z,1508
2017-08-28T05:16:40.644Z,1572
2017-08-28T05:17:54.244Z,1692
2017-08-28T05:19:08.215Z,1776
2017-08-28T05:20:22.118Z,1808
2017-08-28T05:21:35.683Z,1796
2017-08-28T05:22:49.441Z,1760
2017-08-28T05:24:03.124Z,1740
2017-08-28T05:25:16.682Z,1724
2017-08-28T05:26:30.918Z,1740
2017-08-28T05:27:44.511Z,1792
2017-08-28T05:28:58.869Z,1900
2017-08-28T05:30:12.486Z,2048
2017-08-28T05:31:26.096Z,2216
2017-08-28T05:32:39.967Z,2348
2017-08-28T05:33:53.544Z,2460
2017-08-28T05:35:07.157Z,2556
2017-08-28T05:36:20.763Z,2616
2017-08-28T05:37:34.339Z,2684
2017-08-28T05:38:48.264Z,2772
2017-08-28T05:40:02.275Z,2900
2017-08-28T05:41:16.351Z,3044
2017-08-28T05:42:29.938Z,3156
2017-08-28T05:43:43.869Z,3164
2017-08-28T05:44:57.799Z,3056
2017-08-28T05:46:11.402Z,2840
2017-08-28T05:47:25.506Z,2596
2017-08-28T05:48:39.081Z,2384
2017-08-28T05:49:52.710Z,2240
2017-08-28T05:51:06.945Z,2160
2017-08-28T05:52:20.510Z,2128
2017-08-28T05:53:34.096Z,2116
2017-08-28T05:54:47.671Z,2112
2017-08-28T05:56:01.435Z,2116
2017-08-28T05:57:15.345Z,2124
2017-08-28T05:58:29.262Z,2136
2017-08-28T05:59:42.834Z,2148
2017-08-28T06:00:56.668Z,2148
2017-08-28T06:02:10.505Z,2152
2017-08-28T06:03:24.386Z,2156
2017-08-28T06:04:37.955Z,2172
2017-08-28T06:05:51.611Z,2196
2017-08-28T06:07:05.512Z,2248
2017-08-28T06:08:19.070Z,2336
2017-08-28T06:09:33.054Z,2476
2017-08-28T06:10:46.672Z,2644
2017-08-28T06:12:00.264Z,2796
2017-08-28T06:13:13.838Z,2940
2017-08-28T06:14:27.404Z,3100
2017-08-28T06:15:41.278Z,3252
2017-08-28T06:16:54.889Z,3408
2017-08-28T06:18:08.676Z,3540
2017-08-28T06:19:24.016Z,3648
2017-08-28T06:20:37.577Z,3740
2017-08-28T06:21:51.538Z,3832
2017-08-28T06:23:05.437Z,3944
2017-08-28T06:24:19.152Z,4040
2017-08-28T06:25:32.728Z,4112
2017-08-28T06:26:46.308Z,4172
2017-08-28T06:27:59.874Z,4224
2017-08-28T06:29:13.456Z,4272
2017-08-28T06:30:27.047Z,4316
2017-08-28T06:31:40.737Z,4340
2017-08-28T06:32:54.369Z,4364
2017-08-28T06:34:07.960Z,4384
2017-08-28T06:35:21.537Z,4392
2017-08-28T06:36:35.101Z,4416
2017-08-28T06:37:48.689Z,4448
2017-08-28T06:39:02.623Z,4480
2017-08-28T06:40:16.248Z,4508
2017-08-28T06:41:30.335Z,4520
2017-08-28T06:42:43.954Z,4516
2017-08-28T06:43:57.554Z,4500
2017-08-28T06:45:11.300Z,4492
2017-08-28T06:46:24.877Z,4492
2017-08-28T06:47:38.492Z,4496
2017-08-28T06:48:52.079Z,4500
2017-08-28T06:50:05.657Z,4500
2017-08-28T06:51:19.275Z,4508
2017-08-28T06:52:33.675Z,4520
2017-08-28T06:53:47.242Z,4532
2017-08-28T06:55:00.848Z,4544
2017-08-28T06:56:14.923Z,4560
2017-08-28T06:57:28.512Z,4568
2017-08-28T06:58:42.466Z,4580
2017-08-28T06:59:56.107Z,4596
2017-08-28T07:01:09.836Z,4604
2017-08-28T07:02:23.428Z,4588
2017-08-28T07:03:37.009Z,4580
2017-08-28T07:04:50.914Z,4568
2017-08-28T07:06:04.910Z,4556
2017-08-28T07:07:18.498Z,4548
2017-08-28T07:08:32.091Z,4536
2017-08-28T07:09:46.060Z,4536
2017-08-28T07:11:00.292Z,4524
2017-08-28T07:12:14.072Z,4516
2017-08-28T07:13:27.974Z,4508
2017-08-28T07:14:41.578Z,4500
2017-08-28T07:15:55.665Z,4496
2017-08-28T07:17:09.696Z,4484
2017-08-28T07:18:23.274Z,4464
2017-08-28T07:22:34.549Z,4432
2017-08-28T07:23:48.132Z,4412
2017-08-28T07:25:01.708Z,4392
2017-08-28T07:26:15.306Z,4376
2017-08-28T07:27:28.924Z,4372
2017-08-28T07:28:42.493Z,4360
2017-08-28T07:29:56.063Z,4356
2017-08-28T07:31:09.644Z,4348
2017-08-28T07:32:23.262Z,4336
2017-08-28T07:33:37.232Z,4328
2017-08-28T07:34:51.194Z,4320
2017-08-28T07:36:04.794Z,4316
2017-08-28T07:37:19.123Z,4316
2017-08-28T07:38:32.738Z,4308
2017-08-28T07:39:46.333Z,4296
2017-08-28T07:41:00.308Z,4284
2017-08-28T07:42:13.906Z,4272
2017-08-28T07:43:27.550Z,4252
2017-08-28T07:44:41.148Z,4236
2017-08-28T07:45:54.728Z,4212
2017-08-28T07:47:08.910Z,4184
2017-08-28T07:48:22.567Z,4164
2017-08-28T07:49:36.170Z,4152
2017-08-28T07:50:49.752Z,4144
2017-08-28T07:52:03.335Z,4136
2017-08-28T07:53:17.054Z,4120
2017-08-28T07:54:30.680Z,4100
2017-08-28T07:55:44.370Z,4084
2017-08-28T07:56:58.267Z,4064
2017-08-28T07:58:11.867Z,4056
2017-08-28T07:59:26.441Z,4040
2017-08-28T08:00:40.730Z,4036
2017-08-28T08:01:54.355Z,4024
2017-08-28T08:03:07.964Z,4012
2017-08-28T08:04:21.599Z,4000
2017-08-28T08:05:36.158Z,3976
2017-08-28T08:06:49.754Z,3952
2017-08-28T08:08:03.352Z,3932
2017-08-28T08:09:17.810Z,3908
2017-08-28T08:10:31.594Z,3880
2017-08-28T08:11:45.826Z,3860
2017-08-28T08:12:59.414Z,3840
2017-08-28T08:14:13.020Z,3824
2017-08-28T08:15:26.677Z,3792
2017-08-28T08:16:40.271Z,3768
2017-08-28T08:17:54.174Z,3752
2017-08-28T08:19:07.765Z,3744
2017-08-28T08:20:21.395Z,3728
2017-08-28T08:21:34.992Z,3716
2017-08-28T08:22:48.570Z,3696
2017-08-28T08:24:02.443Z,3672
2017-08-28T08:25:16.180Z,3648
2017-08-28T08:26:29.785Z,3636
2017-08-28T08:27:43.683Z,3620
2017-08-28T08:28:57.592Z,3612
2017-08-28T08:30:11.519Z,3588
2017-08-28T08:31:25.107Z,3576
2017-08-28T08:32:38.795Z,3564
2017-08-28T08:33:52.382Z,3556
2017-08-28T08:35:05.964Z,3556
2017-08-28T08:36:19.877Z,3556
2017-08-28T08:37:33.820Z,3552
2017-08-28T08:38:47.554Z,3548
2017-08-28T08:40:01.154Z,3556
2017-08-28T08:41:14.786Z,3556
2017-08-28T08:42:29.329Z,3560
2017-08-28T08:43:42.971Z,3552
2017-08-28T08:44:56.684Z,3552
2017-08-28T08:46:11.418Z,3544
2017-08-28T08:47:25.314Z,3532
2017-08-28T08:48:39.242Z,3516
2017-08-28T08:49:52.848Z,3500
2017-08-28T08:51:06.977Z,3488
2017-08-28T08:52:20.911Z,3476
2017-08-28T08:53:34.900Z,3464
2017-08-28T08:54:49.525Z,3448
2017-08-28T08:56:03.452Z,3440
2017-08-28T08:57:17.347Z,3428
2017-08-28T08:58:30.922Z,3416
2017-08-28T08:59:44.514Z,3408
2017-08-28T09:00:58.499Z,3396
2017-08-28T09:02:12.180Z,3388
2017-08-28T09:03:26.007Z,3380
2017-08-28T09:04:39.948Z,3372
2017-08-28T09:05:53.554Z,3368
2017-08-28T09:07:07.186Z,3356
2017-08-28T09:08:20.832Z,3352
2017-08-28T09:09:34.440Z,3348
2017-08-28T09:10:48.035Z,3344
2017-08-28T09:12:01.819Z,3328
2017-08-28T09:13:15.731Z,3308
2017-08-28T09:14:29.321Z,3292
2017-08-28T09:15:43.685Z,3276
2017-08-28T09:16:57.635Z,3272
2017-08-28T09:18:11.295Z,3260
2017-08-28T09:19:25.435Z,3256
2017-08-28T09:20:39.015Z,3244
2017-08-28T09:21:52.650Z,3228
2017-08-28T09:23:06.391Z,3220
2017-08-28T09:24:20.045Z,3208
2017-08-28T09:25:33.968Z,3196
2017-08-28T09:26:47.589Z,3184
2017-08-28T09:28:01.253Z,3168
2017-08-28T09:29:14.937Z,3160
2017-08-28T09:30:29.158Z,3152
2017-08-28T09:31:43.624Z,3140
2017-08-28T09:32:57.239Z,3132
2017-08-28T09:34:10.869Z,3124
2017-08-28T09:35:24.589Z,3116
2017-08-28T09:36:38.502Z,3112
2017-08-28T09:37:52.422Z,3100
2017-08-28T09:39:06.076Z,3092
2017-08-28T09:40:19.680Z,3076
2017-08-28T09:41:33.276Z,3076
2017-08-28T09:42:46.962Z,3056
2017-08-28T09:44:00.926Z,3044
2017-08-28T09:45:14.516Z,3036
2017-08-28T09:46:28.822Z,3024
2017-08-28T09:47:42.543Z,3016
2017-08-28T09:48:56.322Z,3004
2017-08-28T09:50:10.195Z,2992
2017-08-28T09:51:24.451Z,2988
2017-08-28T09:52:38.031Z,2976
2017-08-28T09:53:51.621Z,2964
2017-08-28T09:55:05.246Z,2960
2017-08-28T09:56:19.333Z,2952
2017-08-28T09:57:32.961Z,2944
2017-08-28T09:58:46.586Z,2936
2017-08-28T10:00:00.405Z,2924
2017-08-28T10:01:14.002Z,2916
2017-08-28T10:02:28.024Z,2912
2017-08-28T10:03:41.631Z,2900
2017-08-28T10:04:55.202Z,2892
2017-08-28T10:06:08.823Z,2892
2017-08-28T10:07:22.412Z,2896
2017-08-28T10:08:36.302Z,2892
2017-08-28T10:09:50.132Z,2892
2017-08-28T10:11:03.724Z,2896
2017-08-28T10:12:17.294Z,2892
2017-08-28T10:13:30.952Z,2888
2017-08-28T10:14:45.250Z,2884
2017-08-28T10:15:59.082Z,2876
2017-08-28T10:17:12.679Z,2868
2017-08-28T10:18:26.254Z,2860
2017-08-28T10:19:39.899Z,2848
2017-08-28T10:20:53.796Z,2836
2017-08-28T10:22:07.386Z,2832
2017-08-28T10:23:21.361Z,2828
2017-08-28T10:24:34.933Z,2820
2017-08-28T10:25:48.530Z,2812
2017-08-28T10:27:02.623Z,2800
2017-08-28T10:28:16.304Z,2788
2017-08-28T10:29:29.904Z,2780
2017-08-28T10:30:44.061Z,2772
2017-08-28T10:31:57.671Z,2764
2017-08-28T10:33:11.572Z,2760
2017-08-28T10:34:25.204Z,2756
2017-08-28T10:35:38.830Z,2748
2017-08-28T10:36:52.451Z,2736
2017-08-28T10:38:06.152Z,2724
2017-08-28T10:39:20.378Z,2712
2017-08-28T10:40:34.232Z,2700
2017-08-28T10:41:47.815Z,2692
2017-08-28T10:43:01.459Z,2688
2017-08-28T10:44:15.943Z,2684
2017-08-28T10:45:29.874Z,2672
2017-08-28T10:46:43.492Z,2660
2017-08-28T10:47:57.129Z,2648
2017-08-28T10:49:11.075Z,2640
2017-08-28T10:50:24.780Z,2636
2017-08-28T10:51:38.726Z,2624
2017-08-28T10:52:52.339Z,2608
2017-08-28T10:54:05.909Z,2596
2017-08-28T10:55:19.510Z,2588
2017-08-28T10:56:33.375Z,2572
2017-08-28T10:57:47.421Z,2572
2017-08-28T10:59:01.352Z,2568
2017-08-28T11:00:14.963Z,2556
2017-08-28T11:01:29.019Z,2552
2017-08-28T11:02:42.612Z,2544
2017-08-28T11:03:56.701Z,2528
2017-08-28T11:05:10.264Z,2524
2017-08-28T11:06:24.063Z,2516
2017-08-28T11:07:37.728Z,2516
2017-08-28T11:08:51.650Z,2516
2017-08-28T11:10:06.236Z,2508
2017-08-28T11:11:19.858Z,2504
2017-08-28T11:12:52.721Z,2492
2017-08-28T11:14:06.311Z,2488
2017-08-28T11:15:20.193Z,2480
2017-08-28T11:16:34.218Z,2472
2017-08-28T11:17:47.820Z,2472
2017-08-28T11:19:01.523Z,2464
2017-08-28T11:20:15.134Z,2460
2017-08-28T11:21:29.751Z,2456
2017-08-28T11:22:43.329Z,2464
2017-08-28T11:23:57.567Z,2456
2017-08-28T11:25:11.151Z,2460
2017-08-28T11:26:24.844Z,2456
2017-08-28T11:27:38.733Z,2448
2017-08-28T11:28:52.726Z,2444
2017-08-28T11:30:06.754Z,2444
2017-08-28T11:31:20.880Z,2440
2017-08-28T11:32:34.948Z,2428
2017-08-28T11:33:48.842Z,2420
2017-08-28T11:35:02.431Z,2412
2017-08-28T11:36:16.634Z,2412
2017-08-28T11:37:30.684Z,2416
2017-08-28T11:38:44.370Z,2404
2017-08-28T11:39:58.304Z,2388
2017-08-28T11:41:12.355Z,2368
2017-08-28T11:42:26.183Z,2364
2017-08-28T11:43:40.029Z,2364
2017-08-28T11:44:53.944Z,2356
2017-08-28T11:46:07.843Z,2352
2017-08-28T11:47:21.491Z,2336
2017-08-28T11:48:35.664Z,2336
2017-08-28T11:49:49.333Z,2348
2017-08-28T11:51:02.927Z,2352
2017-08-28T11:52:17.244Z,2360
2017-08-28T11:53:31.274Z,2360
2017-08-28T11:54:44.929Z,2360
2017-08-28T11:55:58.730Z,2368
2017-08-28T11:57:12.705Z,2392
2017-08-28T11:58:27.005Z,2412
2017-08-28T11:59:41.035Z,2380
2017-08-28T12:00:54.696Z,2356
2017-08-28T12:02:09.252Z,2344
2017-08-28T12:03:22.900Z,2328
2017-08-28T12:04:36.901Z,2320
2017-08-28T12:05:50.530Z,2312
2017-08-28T12:07:04.457Z,2304
2017-08-28T12:09:46.689Z,2264
2017-08-28T12:11:01.014Z,2252
2017-08-28T12:12:14.709Z,2228
2017-08-28T12:13:28.872Z,2232
2017-08-28T12:14:43.185Z,2224
2017-08-28T12:15:56.848Z,2220
2017-08-28T12:17:11.118Z,2244
2017-08-28T12:18:25.682Z,2272
2017-08-28T12:19:39.315Z,2312
2017-08-28T12:20:52.933Z,2324
2017-08-28T12:22:07.217Z,2328
2017-08-28T12:23:21.118Z,2300
2017-08-28T12:24:35.055Z,2344
2017-08-28T12:25:49.103Z,2420
2017-08-28T12:27:02.843Z,2528
2017-08-28T12:28:16.435Z,2628
2017-08-28T12:29:30.442Z,2688
2017-08-28T12:30:44.140Z,2636
2017-08-28T12:31:58.137Z,2588
2017-08-28T12:33:11.843Z,2552
2017-08-28T12:34:25.488Z,2560
2017-08-28T12:35:39.987Z,2496
2017-08-28T12:36:53.568Z,2404
2017-08-28T12:38:07.161Z,2428
2017-08-28T12:39:20.795Z,2472
2017-08-28T12:40:34.445Z,2444
2017-08-28T12:41:48.661Z,2464
2017-08-28T12:43:02.305Z,2420
2017-08-28T12:44:16.347Z,2364
2017-08-28T12:45:29.985Z,2320
2017-08-28T12:46:44.098Z,2240
2017-08-28T12:47:58.066Z,2216
2017-08-28T12:49:11.661Z,2196
2017-08-28T12:50:25.358Z,2200
2017-08-28T12:51:38.953Z,2208
2017-08-28T12:52:52.653Z,2216
2017-08-28T12:54:07.091Z,2216
2017-08-28T12:55:20.763Z,2184
2017-08-28T12:56:34.411Z,2172
2017-08-28T13:00:06.300Z,2144
2017-08-28T13:01:20.583Z,2140
2017-08-28T13:02:34.900Z,2144
2017-08-28T13:03:48.549Z,2160
2017-08-28T13:05:02.389Z,2188
2017-08-28T13:06:16.327Z,2208
2017-08-28T13:07:30.206Z,2244
2017-08-28T13:08:43.825Z,2208
2017-08-28T13:09:57.731Z,2180
2017-08-28T13:11:11.748Z,2144
2017-08-28T13:12:25.962Z,2136
2017-08-28T13:13:40.674Z,2140
2017-08-28T13:14:54.359Z,2120
2017-08-28T13:16:08.396Z,2100
2017-08-28T13:17:23.007Z,2084
2017-08-28T13:18:37.637Z,2064
2017-08-28T13:19:51.706Z,2064
2017-08-28T13:21:05.710Z,2064
2017-08-28T13:22:19.420Z,2060
2017-08-28T13:23:33.054Z,2032
2017-08-28T13:24:47.049Z,2020
2017-08-28T13:26:00.696Z,2020
2017-08-28T13:27:14.751Z,2048
2017-08-28T13:28:28.450Z,2032
2017-08-28T13:29:42.488Z,2004
2017-08-28T13:30:56.514Z,1960
2017-08-28T13:32:10.176Z,1852
2017-08-28T13:33:24.014Z,1880
2017-08-28T13:34:38.086Z,1900
2017-08-28T13:35:52.393Z,1820
2017-08-28T13:37:06.394Z,1828
2017-08-28T13:38:20.889Z,1864
2017-08-28T13:39:34.751Z,1880
2017-08-28T13:40:48.435Z,1864
2017-08-28T13:42:02.059Z,2040
2017-08-28T13:43:16.002Z,2052
2017-08-28T13:44:29.914Z,2056
2017-08-28T13:45:43.687Z,2056
2017-08-28T13:46:57.279Z,2056
2017-08-28T13:48:10.962Z,2052
2017-08-28T13:49:25.405Z,2064
2017-08-28T13:50:39.022Z,2088
2017-08-28T13:51:52.661Z,2072
2017-08-28T13:53:06.511Z,2064
2017-08-28T13:54:20.103Z,2064
2017-08-28T13:55:34.010Z,2072
2017-08-28T13:56:47.580Z,2100
2017-08-28T13:58:01.161Z,2104
2017-08-28T13:59:14.740Z,2108
2017-08-28T14:00:28.379Z,2132
2017-08-28T14:01:42.494Z,2152
2017-08-28T14:02:56.472Z,2204
2017-08-28T14:04:10.174Z,2248
2017-08-28T14:05:23.907Z,2280
2017-08-28T14:06:37.636Z,2456
2017-08-28T14:07:51.581Z,2600
2017-08-28T14:09:05.928Z,2628
2017-08-28T14:10:19.547Z,2652
2017-08-28T14:11:33.170Z,2556
2017-08-28T14:12:47.196Z,2376
2017-08-28T14:14:01.147Z,2280
2017-08-28T14:15:15.578Z,2240
2017-08-28T14:16:29.183Z,2252
2017-08-28T14:17:42.804Z,2236
2017-08-28T14:18:56.451Z,2184
2017-08-28T14:20:10.537Z,2128
2017-08-28T14:21:24.254Z,2128
2017-08-28T14:22:38.160Z,2176
2017-08-28T14:23:51.767Z,2160
2017-08-28T14:25:05.903Z,2180
2017-08-28T14:26:20.511Z,2208
2017-08-28T14:27:34.510Z,2312
2017-08-28T14:28:48.092Z,2404
2017-08-28T14:30:02.043Z,2424
2017-08-28T14:31:15.826Z,2252
2017-08-28T14:32:29.775Z,2124
2017-08-28T14:33:43.448Z,2116
2017-08-28T14:34:57.287Z,2100
2017-08-28T14:36:11.154Z,2120
2017-08-28T14:37:24.770Z,2076
2017-08-28T14:38:39.312Z,2132
2017-08-28T14:39:52.959Z,2116
2017-08-28T14:41:06.673Z,2108
2017-08-28T14:42:20.271Z,2116
2017-08-28T14:43:34.714Z,2112
2017-08-28T14:44:48.807Z,2104
2017-08-28T14:46:02.828Z,2048
2017-08-28T14:47:17.005Z,1992
2017-08-28T14:48:31.549Z,2000
2017-08-28T14:50:04.707Z,2008
2017-08-28T14:52:03.120Z,2080
2017-08-28T14:54:07.953Z,1984
2017-08-28T14:55:21.962Z,1992
2017-08-28T14:56:35.780Z,2036
2017-08-28T14:57:49.384Z,2060
2017-08-28T14:59:03.541Z,2100
2017-08-28T15:00:17.822Z,2176
2017-08-28T15:01:32.251Z,2140
2017-08-28T15:02:45.898Z,2124
2017-08-28T15:03:59.524Z,2132
2017-08-28T15:05:13.384Z,2144
2017-08-28T15:06:27.007Z,2152
2017-08-28T15:07:40.967Z,2156
2017-08-28T15:08:54.728Z,2152
2017-08-28T15:10:08.616Z,2120
2017-08-28T15:11:22.265Z,2152
2017-08-28T15:12:36.276Z,2244
2017-08-28T15:13:50.203Z,2340
2017-08-28T15:15:04.164Z,2424
2017-08-28T15:16:17.872Z,2496
2017-08-28T15:17:31.563Z,2544
2017-08-28T15:18:45.170Z,2452
2017-08-28T15:19:59.576Z,2308
2017-08-28T15:21:13.231Z,2276
2017-08-28T15:22:26.807Z,2232
2017-08-28T15:23:40.382Z,2212
2017-08-28T15:24:53.973Z,2204
2017-08-28T15:26:07.862Z,2208
2017-08-28T15:27:21.474Z,2160
2017-08-28T15:28:35.440Z,2088
2017-08-28T15:29:49.421Z,2064
2017-08-28T15:31:03.051Z,2048
2017-08-28T15:32:17.544Z,2032
2017-08-28T15:33:31.129Z,2024
2017-08-28T15:34:44.736Z,2020
2017-08-28T15:35:58.683Z,2024
2017-08-28T15:37:12.327Z,2016
2017-08-28T15:38:26.653Z,2016
2017-08-28T15:39:41.866Z,2020
2017-08-28T15:40:55.845Z,2024
2017-08-28T15:42:09.453Z,2016
2017-08-28T15:43:23.060Z,2008
2017-08-28T15:44:37.052Z,1976
2017-08-28T15:45:50.662Z,1952
2017-08-28T15:47:04.412Z,1920
2017-08-28T15:48:18.093Z,1896
2017-08-28T15:49:31.947Z,1868
2017-08-28T15:50:45.843Z,1848
2017-08-28T15:51:59.566Z,1828
2017-08-28T15:53:13.265Z,1804
2017-08-28T15:54:26.921Z,1780
2017-08-28T15:55:40.504Z,1756
2017-08-28T15:56:54.967Z,1740
2017-08-28T15:58:08.715Z,1732
2017-08-28T15:59:22.279Z,1724
2017-08-28T16:00:35.876Z,1712
2017-08-28T16:01:49.526Z,1700
2017-08-28T16:03:04.331Z,1692
2017-08-28T16:04:18.046Z,1676
2017-08-28T16:05:32.012Z,1668
2017-08-28T16:06:45.988Z,1664
2017-08-28T16:07:59.952Z,1668
2017-08-28T16:09:14.219Z,1656
2017-08-28T16:10:28.308Z,1656
2017-08-28T16:11:41.908Z,1652
2017-08-28T16:12:55.518Z,1644
2017-08-28T16:14:09.186Z,1640
2017-08-28T16:15:23.054Z,1636
2017-08-28T16:16:36.722Z,1616
2017-08-28T16:17:50.899Z,1600
2017-08-28T16:19:04.897Z,1572
2017-08-28T16:20:18.930Z,1548
2017-08-28T16:21:32.864Z,1552
2017-08-28T16:22:46.477Z,1552
2017-08-28T16:24:00.093Z,1544
2017-08-28T16:25:13.677Z,1532
2017-08-28T16:26:27.264Z,1524
2017-08-28T16:27:41.493Z,1508
2017-08-28T16:28:55.184Z,1496
2017-08-28T16:30:08.791Z,1492
2017-08-28T16:31:23.092Z,1488
2017-08-28T16:32:36.729Z,1484
2017-08-28T16:33:50.951Z,1472
2017-08-28T16:35:04.605Z,1452
2017-08-28T16:36:18.219Z,1428
2017-08-28T16:37:32.165Z,1412
2017-08-28T16:38:46.206Z,1392
2017-08-28T16:40:00.220Z,1396
2017-08-28T16:41:13.827Z,1376
2017-08-28T16:42:27.411Z,1372
2017-08-28T16:43:41.015Z,1360
2017-08-28T16:44:54.750Z,1352
2017-08-28T16:46:08.672Z,1344
2017-08-28T16:47:22.301Z,1332
2017-08-28T16:48:35.895Z,1320
2017-08-28T16:49:49.519Z,1308
2017-08-28T16:51:03.327Z,1292
2017-08-28T16:52:17.510Z,1272
2017-08-28T16:53:31.142Z,1256
2017-08-28T16:54:44.768Z,1228
2017-08-28T16:55:58.409Z,1192
2017-08-28T16:57:11.994Z,1184
2017-08-28T16:58:25.920Z,1200
2017-08-28T16:59:39.872Z,1220